sensor_id;sensor_type;location;lat;lon;timestamp;temperature;humidity
28823;DHT22;15961;54.678;9.110;2023-04-25T00:00:42;5.80;99.90
28823;DHT22;15961;54.678;9.110;2023-04-25T00:03:07;5.80;99.90
28823;DHT22;15961;54.678;9.110;2023-04-25T00:05:35;5.80;99.90
28823;DHT22;15961;54.678;9.110;2023-04-25T00:08:02;5.80;99.90
28823;DHT22;15961;54.678;9.110;2023-04-25T00:10:28;5.80;99.90
28823;DHT22;15961;54.678;9.110;2023-04-25T00:12:54;5.80;99.90
28823;DHT22;15961;54.678;9.110;2023-04-25T00:15:19;5.80;99.90
28823;DHT22;15961;54.678;9.110;2023-04-25T00:17:45;5.80;99.90
28823;DHT22;15961;54.678;9.110;2023-04-25T00:20:11;5.80;99.90
28823;DHT22;15961;54.678;9.110;2023-04-25T00:22:39;5.80;99.90
28823;DHT22;15961;54.678;9.110;2023-04-25T00:25:07;5.90;99.90
28823;DHT22;15961;54.678;9.110;2023-04-25T00:27:33;5.80;99.90
28823;DHT22;15961;54.678;9.110;2023-04-25T00:29:58;5.70;99.90
28823;DHT22;15961;54.678;9.110;2023-04-25T00:32:24;5.70;99.90
28823;DHT22;15961;54.678;9.110;2023-04-25T00:34:53;5.60;99.90
28823;DHT22;15961;54.678;9.110;2023-04-25T00:37:18;5.60;99.90
28823;DHT22;15961;54.678;9.110;2023-04-25T00:39:45;5.60;99.90
28823;DHT22;15961;54.678;9.110;2023-04-25T00:42:11;5.60;99.90
28823;DHT22;15961;54.678;9.110;2023-04-25T00:44:37;5.60;99.90
28823;DHT22;15961;54.678;9.110;2023-04-25T00:47:03;5.70;99.90
28823;DHT22;15961;54.678;9.110;2023-04-25T00:49:31;5.70;99.90
28823;DHT22;15961;54.678;9.110;2023-04-25T00:51:57;5.70;99.90
28823;DHT22;15961;54.678;9.110;2023-04-25T00:54:22;5.80;99.90
28823;DHT22;15961;54.678;9.110;2023-04-25T00:56:52;5.80;99.90
28823;DHT22;15961;54.678;9.110;2023-04-25T00:59:19;5.80;99.90
28823;DHT22;15961;54.678;9.110;2023-04-25T01:01:45;5.80;99.90
28823;DHT22;15961;54.678;9.110;2023-04-25T01:04:11;5.80;99.90
28823;DHT22;15961;54.678;9.110;2023-04-25T01:06:36;5.90;99.90
28823;DHT22;15961;54.678;9.110;2023-04-25T01:09:02;5.90;99.90
28823;DHT22;15961;54.678;9.110;2023-04-25T01:11:29;5.90;99.90
28823;DHT22;15961;54.678;9.110;2023-04-25T01:13:55;5.80;99.90
28823;DHT22;15961;54.678;9.110;2023-04-25T01:16:20;5.80;99.90
28823;DHT22;15961;54.678;9.110;2023-04-25T01:18:49;5.80;99.90
28823;DHT22;15961;54.678;9.110;2023-04-25T01:21:16;5.80;99.90
28823;DHT22;15961;54.678;9.110;2023-04-25T01:23:42;5.80;99.90
28823;DHT22;15961;54.678;9.110;2023-04-25T01:26:11;5.70;99.90
28823;DHT22;15961;54.678;9.110;2023-04-25T01:28:38;5.70;99.90
28823;DHT22;15961;54.678;9.110;2023-04-25T01:31:06;5.70;99.90
28823;DHT22;15961;54.678;9.110;2023-04-25T01:33:32;5.70;99.90
28823;DHT22;15961;54.678;9.110;2023-04-25T01:36:00;5.70;99.90
28823;DHT22;15961;54.678;9.110;2023-04-25T01:38:25;5.70;99.90
28823;DHT22;15961;54.678;9.110;2023-04-25T01:40:51;5.70;99.90
28823;DHT22;15961;54.678;9.110;2023-04-25T01:43:17;5.70;99.90
28823;DHT22;15961;54.678;9.110;2023-04-25T01:45:43;5.70;99.90
28823;DHT22;15961;54.678;9.110;2023-04-25T01:48:13;5.70;99.90
28823;DHT22;15961;54.678;9.110;2023-04-25T01:50:40;5.60;99.90
28823;DHT22;15961;54.678;9.110;2023-04-25T01:53:06;5.60;99.90
28823;DHT22;15961;54.678;9.110;2023-04-25T01:55:32;5.60;99.90
28823;DHT22;15961;54.678;9.110;2023-04-25T01:58:02;5.60;99.90
28823;DHT22;15961;54.678;9.110;2023-04-25T02:00:31;5.50;99.90
28823;DHT22;15961;54.678;9.110;2023-04-25T02:02:59;5.50;99.90
28823;DHT22;15961;54.678;9.110;2023-04-25T02:05:25;5.50;99.90
28823;DHT22;15961;54.678;9.110;2023-04-25T02:07:50;5.50;99.90
28823;DHT22;15961;54.678;9.110;2023-04-25T02:10:16;5.50;99.90
28823;DHT22;15961;54.678;9.110;2023-04-25T02:12:41;5.60;99.90
28823;DHT22;15961;54.678;9.110;2023-04-25T02:15:07;5.60;99.90
28823;DHT22;15961;54.678;9.110;2023-04-25T02:17:33;5.60;99.90
28823;DHT22;15961;54.678;9.110;2023-04-25T02:19:58;5.70;99.90
28823;DHT22;15961;54.678;9.110;2023-04-25T02:22:24;5.70;99.90
28823;DHT22;15961;54.678;9.110;2023-04-25T02:24:53;5.60;99.90
28823;DHT22;15961;54.678;9.110;2023-04-25T02:27:19;5.60;99.90
28823;DHT22;15961;54.678;9.110;2023-04-25T02:29:44;5.60;99.90
28823;DHT22;15961;54.678;9.110;2023-04-25T02:32:10;5.60;99.90
28823;DHT22;15961;54.678;9.110;2023-04-25T02:34:38;5.60;99.90
28823;DHT22;15961;54.678;9.110;2023-04-25T02:37:03;5.60;99.90
28823;DHT22;15961;54.678;9.110;2023-04-25T02:39:29;5.60;99.90
28823;DHT22;15961;54.678;9.110;2023-04-25T02:41:54;5.60;99.90
28823;DHT22;15961;54.678;9.110;2023-04-25T02:44:20;5.60;99.90
28823;DHT22;15961;54.678;9.110;2023-04-25T02:46:48;5.60;99.90
28823;DHT22;15961;54.678;9.110;2023-04-25T02:49:14;5.60;99.90
28823;DHT22;15961;54.678;9.110;2023-04-25T02:51:40;5.60;99.90
28823;DHT22;15961;54.678;9.110;2023-04-25T02:54:05;5.60;99.90
28823;DHT22;15961;54.678;9.110;2023-04-25T02:56:31;5.60;99.90
28823;DHT22;15961;54.678;9.110;2023-04-25T02:58:59;5.60;99.90
28823;DHT22;15961;54.678;9.110;2023-04-25T03:01:25;5.50;99.90
28823;DHT22;15961;54.678;9.110;2023-04-25T03:03:50;5.50;99.90
28823;DHT22;15961;54.678;9.110;2023-04-25T03:06:16;5.60;99.90
28823;DHT22;15961;54.678;9.110;2023-04-25T03:08:41;5.60;99.90
28823;DHT22;15961;54.678;9.110;2023-04-25T03:11:07;5.60;99.90
28823;DHT22;15961;54.678;9.110;2023-04-25T03:13:32;5.60;99.90
28823;DHT22;15961;54.678;9.110;2023-04-25T03:15:58;5.60;99.90
28823;DHT22;15961;54.678;9.110;2023-04-25T03:18:29;5.60;99.90
28823;DHT22;15961;54.678;9.110;2023-04-25T03:20:54;5.70;99.90
28823;DHT22;15961;54.678;9.110;2023-04-25T03:23:20;5.70;99.90
28823;DHT22;15961;54.678;9.110;2023-04-25T03:25:45;5.70;99.90
28823;DHT22;15961;54.678;9.110;2023-04-25T03:28:11;5.70;99.90
28823;DHT22;15961;54.678;9.110;2023-04-25T03:30:39;5.70;99.90
28823;DHT22;15961;54.678;9.110;2023-04-25T03:33:04;5.70;99.90
28823;DHT22;15961;54.678;9.110;2023-04-25T03:35:30;5.80;99.90
28823;DHT22;15961;54.678;9.110;2023-04-25T03:37:55;5.80;99.90
28823;DHT22;15961;54.678;9.110;2023-04-25T03:40:21;5.60;99.90
28823;DHT22;15961;54.678;9.110;2023-04-25T03:42:46;5.50;99.90
28823;DHT22;15961;54.678;9.110;2023-04-25T03:45:14;5.40;99.90
28823;DHT22;15961;54.678;9.110;2023-04-25T03:47:40;5.40;99.90
28823;DHT22;15961;54.678;9.110;2023-04-25T03:50:06;5.40;99.90
28823;DHT22;15961;54.678;9.110;2023-04-25T03:52:31;5.30;99.90
28823;DHT22;15961;54.678;9.110;2023-04-25T03:54:57;5.20;99.90
28823;DHT22;15961;54.678;9.110;2023-04-25T03:57:22;5.30;99.90
28823;DHT22;15961;54.678;9.110;2023-04-25T03:59:48;5.30;99.90
28823;DHT22;15961;54.678;9.110;2023-04-25T04:02:13;5.20;99.90
28823;DHT22;15961;54.678;9.110;2023-04-25T04:04:39;5.30;99.90
28823;DHT22;15961;54.678;9.110;2023-04-25T04:07:04;5.30;99.90
28823;DHT22;15961;54.678;9.110;2023-04-25T04:09:30;5.40;99.90
28823;DHT22;15961;54.678;9.110;2023-04-25T04:11:58;5.40;99.90
28823;DHT22;15961;54.678;9.110;2023-04-25T04:14:27;5.40;99.90
28823;DHT22;15961;54.678;9.110;2023-04-25T04:16:53;5.40;99.90
28823;DHT22;15961;54.678;9.110;2023-04-25T04:19:18;5.50;99.90
28823;DHT22;15961;54.678;9.110;2023-04-25T04:21:44;5.50;99.90
28823;DHT22;15961;54.678;9.110;2023-04-25T04:24:09;5.50;99.90
28823;DHT22;15961;54.678;9.110;2023-04-25T04:26:37;5.50;99.90
28823;DHT22;15961;54.678;9.110;2023-04-25T04:29:04;5.50;99.90
28823;DHT22;15961;54.678;9.110;2023-04-25T04:31:29;5.50;99.90
28823;DHT22;15961;54.678;9.110;2023-04-25T04:33:55;5.50;99.90
28823;DHT22;15961;54.678;9.110;2023-04-25T04:36:21;5.50;99.90
28823;DHT22;15961;54.678;9.110;2023-04-25T04:38:48;5.50;99.90
28823;DHT22;15961;54.678;9.110;2023-04-25T04:41:14;5.50;99.90
28823;DHT22;15961;54.678;9.110;2023-04-25T04:43:39;5.60;99.90
28823;DHT22;15961;54.678;9.110;2023-04-25T04:46:05;5.60;99.90
28823;DHT22;15961;54.678;9.110;2023-04-25T04:48:36;5.60;99.90
28823;DHT22;15961;54.678;9.110;2023-04-25T04:51:04;5.70;99.90
28823;DHT22;15961;54.678;9.110;2023-04-25T04:53:30;5.60;99.90
28823;DHT22;15961;54.678;9.110;2023-04-25T04:55:55;5.60;99.90
28823;DHT22;15961;54.678;9.110;2023-04-25T04:58:24;5.60;99.90
28823;DHT22;15961;54.678;9.110;2023-04-25T05:00:49;5.50;99.90
28823;DHT22;15961;54.678;9.110;2023-04-25T05:03:15;5.50;99.90
28823;DHT22;15961;54.678;9.110;2023-04-25T05:05:41;5.50;99.90
28823;DHT22;15961;54.678;9.110;2023-04-25T05:08:07;5.50;99.90
28823;DHT22;15961;54.678;9.110;2023-04-25T05:10:35;5.60;99.90
28823;DHT22;15961;54.678;9.110;2023-04-25T05:13:00;5.60;99.90
28823;DHT22;15961;54.678;9.110;2023-04-25T05:15:26;5.60;99.90
28823;DHT22;15961;54.678;9.110;2023-04-25T05:17:52;5.50;99.90
28823;DHT22;15961;54.678;9.110;2023-04-25T05:20:17;5.60;99.90
28823;DHT22;15961;54.678;9.110;2023-04-25T05:22:47;5.60;99.90
28823;DHT22;15961;54.678;9.110;2023-04-25T05:25:12;5.60;99.90
28823;DHT22;15961;54.678;9.110;2023-04-25T05:27:38;5.60;99.90
28823;DHT22;15961;54.678;9.110;2023-04-25T05:30:03;5.60;99.90
28823;DHT22;15961;54.678;9.110;2023-04-25T05:32:30;5.70;99.90
28823;DHT22;15961;54.678;9.110;2023-04-25T05:34:56;5.70;99.90
28823;DHT22;15961;54.678;9.110;2023-04-25T05:37:21;5.70;99.90
28823;DHT22;15961;54.678;9.110;2023-04-25T05:39:47;5.70;99.90
28823;DHT22;15961;54.678;9.110;2023-04-25T05:42:13;5.50;99.90
28823;DHT22;15961;54.678;9.110;2023-04-25T05:44:38;5.40;99.90
28823;DHT22;15961;54.678;9.110;2023-04-25T05:47:04;5.30;99.90
28823;DHT22;15961;54.678;9.110;2023-04-25T05:49:31;5.20;99.90
28823;DHT22;15961;54.678;9.110;2023-04-25T05:51:57;5.00;99.90
28823;DHT22;15961;54.678;9.110;2023-04-25T05:54:23;4.80;99.90
28823;DHT22;15961;54.678;9.110;2023-04-25T05:56:48;4.70;99.90
28823;DHT22;15961;54.678;9.110;2023-04-25T05:59:14;4.70;99.90
28823;DHT22;15961;54.678;9.110;2023-04-25T06:01:39;4.70;99.90
28823;DHT22;15961;54.678;9.110;2023-04-25T06:04:05;4.70;99.90
28823;DHT22;15961;54.678;9.110;2023-04-25T06:06:31;4.80;99.90
28823;DHT22;15961;54.678;9.110;2023-04-25T06:08:57;5.00;99.90
28823;DHT22;15961;54.678;9.110;2023-04-25T06:11:24;5.10;99.90
28823;DHT22;15961;54.678;9.110;2023-04-25T06:13:50;5.20;99.90
28823;DHT22;15961;54.678;9.110;2023-04-25T06:16:16;5.20;99.90
28823;DHT22;15961;54.678;9.110;2023-04-25T06:18:44;5.30;99.90
28823;DHT22;15961;54.678;9.110;2023-04-25T06:21:10;5.40;99.90
28823;DHT22;15961;54.678;9.110;2023-04-25T06:23:35;5.40;99.90
28823;DHT22;15961;54.678;9.110;2023-04-25T06:26:01;5.50;99.90
28823;DHT22;15961;54.678;9.110;2023-04-25T06:28:29;5.50;99.90
28823;DHT22;15961;54.678;9.110;2023-04-25T06:30:55;5.50;99.90
28823;DHT22;15961;54.678;9.110;2023-04-25T06:33:20;5.60;99.90
28823;DHT22;15961;54.678;9.110;2023-04-25T06:35:46;5.70;99.90
28823;DHT22;15961;54.678;9.110;2023-04-25T06:38:12;5.70;99.90
28823;DHT22;15961;54.678;9.110;2023-04-25T06:40:38;5.70;99.90
28823;DHT22;15961;54.678;9.110;2023-04-25T06:43:03;5.80;99.90
28823;DHT22;15961;54.678;9.110;2023-04-25T06:45:29;5.80;99.90
28823;DHT22;15961;54.678;9.110;2023-04-25T06:47:54;5.90;99.90
28823;DHT22;15961;54.678;9.110;2023-04-25T06:50:20;5.90;99.90
28823;DHT22;15961;54.678;9.110;2023-04-25T06:52:45;6.10;99.90
28823;DHT22;15961;54.678;9.110;2023-04-25T06:55:11;6.20;99.90
28823;DHT22;15961;54.678;9.110;2023-04-25T06:57:36;6.20;99.90
28823;DHT22;15961;54.678;9.110;2023-04-25T07:00:03;6.30;99.90
28823;DHT22;15961;54.678;9.110;2023-04-25T07:02:30;6.30;99.90
28823;DHT22;15961;54.678;9.110;2023-04-25T07:04:56;6.30;99.90
28823;DHT22;15961;54.678;9.110;2023-04-25T07:07:25;6.30;99.90
28823;DHT22;15961;54.678;9.110;2023-04-25T07:09:50;6.30;99.90
28823;DHT22;15961;54.678;9.110;2023-04-25T07:12:16;6.40;99.90
28823;DHT22;15961;54.678;9.110;2023-04-25T07:14:44;6.50;99.90
28823;DHT22;15961;54.678;9.110;2023-04-25T07:17:12;6.60;99.90
28823;DHT22;15961;54.678;9.110;2023-04-25T07:19:41;6.60;99.90
28823;DHT22;15961;54.678;9.110;2023-04-25T07:22:07;6.70;99.90
28823;DHT22;15961;54.678;9.110;2023-04-25T07:24:32;6.90;99.90
28823;DHT22;15961;54.678;9.110;2023-04-25T07:26:58;7.00;99.90
28823;DHT22;15961;54.678;9.110;2023-04-25T07:29:27;7.00;99.90
28823;DHT22;15961;54.678;9.110;2023-04-25T07:31:52;6.90;99.90
28823;DHT22;15961;54.678;9.110;2023-04-25T07:34:18;6.80;99.90
28823;DHT22;15961;54.678;9.110;2023-04-25T07:36:43;6.70;99.90
28823;DHT22;15961;54.678;9.110;2023-04-25T07:39:12;6.50;99.90
28823;DHT22;15961;54.678;9.110;2023-04-25T07:41:38;6.40;99.90
28823;DHT22;15961;54.678;9.110;2023-04-25T07:44:03;6.50;99.90
28823;DHT22;15961;54.678;9.110;2023-04-25T07:46:29;6.50;99.90
28823;DHT22;15961;54.678;9.110;2023-04-25T07:48:54;6.50;99.90
28823;DHT22;15961;54.678;9.110;2023-04-25T07:51:20;6.40;99.90
28823;DHT22;15961;54.678;9.110;2023-04-25T07:53:47;6.50;99.90
28823;DHT22;15961;54.678;9.110;2023-04-25T07:56:13;6.50;99.90
28823;DHT22;15961;54.678;9.110;2023-04-25T07:58:38;6.50;99.90
28823;DHT22;15961;54.678;9.110;2023-04-25T08:01:06;6.60;99.90
28823;DHT22;15961;54.678;9.110;2023-04-25T08:03:31;6.80;99.90
28823;DHT22;15961;54.678;9.110;2023-04-25T08:05:57;6.80;99.90
28823;DHT22;15961;54.678;9.110;2023-04-25T08:08:22;6.80;99.90
28823;DHT22;15961;54.678;9.110;2023-04-25T08:10:51;6.90;99.90
28823;DHT22;15961;54.678;9.110;2023-04-25T08:13:17;7.10;99.90
28823;DHT22;15961;54.678;9.110;2023-04-25T08:15:49;7.20;99.90
28823;DHT22;15961;54.678;9.110;2023-04-25T08:18:15;7.30;99.90
28823;DHT22;15961;54.678;9.110;2023-04-25T08:20:40;7.30;99.90
28823;DHT22;15961;54.678;9.110;2023-04-25T08:23:06;7.30;99.90
28823;DHT22;15961;54.678;9.110;2023-04-25T08:25:34;7.20;99.90
28823;DHT22;15961;54.678;9.110;2023-04-25T08:28:00;6.90;99.90
28823;DHT22;15961;54.678;9.110;2023-04-25T08:30:28;6.60;99.90
28823;DHT22;15961;54.678;9.110;2023-04-25T08:32:53;6.60;99.90
28823;DHT22;15961;54.678;9.110;2023-04-25T08:35:22;6.50;99.90
28823;DHT22;15961;54.678;9.110;2023-04-25T08:37:47;6.60;99.90
28823;DHT22;15961;54.678;9.110;2023-04-25T08:40:15;6.70;99.90
28823;DHT22;15961;54.678;9.110;2023-04-25T08:42:43;6.90;99.90
28823;DHT22;15961;54.678;9.110;2023-04-25T08:45:09;7.10;99.90
28823;DHT22;15961;54.678;9.110;2023-04-25T08:47:37;7.10;99.90
28823;DHT22;15961;54.678;9.110;2023-04-25T08:50:04;7.20;99.90
28823;DHT22;15961;54.678;9.110;2023-04-25T08:52:39;7.10;99.90
28823;DHT22;15961;54.678;9.110;2023-04-25T08:55:09;7.20;99.90
28823;DHT22;15961;54.678;9.110;2023-04-25T08:57:35;7.20;99.90
28823;DHT22;15961;54.678;9.110;2023-04-25T09:00:01;7.20;99.90
28823;DHT22;15961;54.678;9.110;2023-04-25T09:02:27;7.40;99.90
28823;DHT22;15961;54.678;9.110;2023-04-25T09:04:54;7.40;99.90
28823;DHT22;15961;54.678;9.110;2023-04-25T09:07:20;7.70;99.90
28823;DHT22;15961;54.678;9.110;2023-04-25T09:09:46;8.30;99.90
28823;DHT22;15961;54.678;9.110;2023-04-25T09:12:13;8.70;99.90
28823;DHT22;15961;54.678;9.110;2023-04-25T09:14:38;8.70;99.90
28823;DHT22;15961;54.678;9.110;2023-04-25T09:17:05;8.60;99.90
28823;DHT22;15961;54.678;9.110;2023-04-25T09:19:34;8.70;99.90
28823;DHT22;15961;54.678;9.110;2023-04-25T09:22:02;8.60;99.90
28823;DHT22;15961;54.678;9.110;2023-04-25T09:24:39;8.30;99.90
28823;DHT22;15961;54.678;9.110;2023-04-25T09:27:07;8.20;99.90
28823;DHT22;15961;54.678;9.110;2023-04-25T09:29:37;8.30;99.90
28823;DHT22;15961;54.678;9.110;2023-04-25T09:32:18;8.30;99.90
28823;DHT22;15961;54.678;9.110;2023-04-25T09:34:55;8.60;99.90
28823;DHT22;15961;54.678;9.110;2023-04-25T09:37:28;8.70;99.90
28823;DHT22;15961;54.678;9.110;2023-04-25T09:39:57;8.60;99.90
28823;DHT22;15961;54.678;9.110;2023-04-25T09:42:25;8.30;99.90
28823;DHT22;15961;54.678;9.110;2023-04-25T09:44:53;8.10;99.90
28823;DHT22;15961;54.678;9.110;2023-04-25T09:47:19;8.20;99.90
28823;DHT22;15961;54.678;9.110;2023-04-25T09:49:48;8.40;99.90
28823;DHT22;15961;54.678;9.110;2023-04-25T09:52:19;8.60;99.90
28823;DHT22;15961;54.678;9.110;2023-04-25T09:54:47;8.80;99.90
28823;DHT22;15961;54.678;9.110;2023-04-25T09:57:14;8.10;99.90
28823;DHT22;15961;54.678;9.110;2023-04-25T09:59:52;7.00;99.90
28823;DHT22;15961;54.678;9.110;2023-04-25T10:02:26;6.40;99.90
28823;DHT22;15961;54.678;9.110;2023-04-25T10:04:55;6.30;99.90
28823;DHT22;15961;54.678;9.110;2023-04-25T10:07:26;6.40;99.90
28823;DHT22;15961;54.678;9.110;2023-04-25T10:10:00;6.40;99.90
28823;DHT22;15961;54.678;9.110;2023-04-25T10:12:27;6.50;99.90
28823;DHT22;15961;54.678;9.110;2023-04-25T10:14:52;6.80;99.90
28823;DHT22;15961;54.678;9.110;2023-04-25T10:17:19;7.40;99.90
28823;DHT22;15961;54.678;9.110;2023-04-25T10:19:47;7.80;99.90
28823;DHT22;15961;54.678;9.110;2023-04-25T10:22:26;8.30;99.90
28823;DHT22;15961;54.678;9.110;2023-04-25T10:24:55;8.80;99.90
28823;DHT22;15961;54.678;9.110;2023-04-25T10:27:21;8.90;99.90
28823;DHT22;15961;54.678;9.110;2023-04-25T10:30:03;9.20;99.90
28823;DHT22;15961;54.678;9.110;2023-04-25T10:32:33;8.90;99.90
28823;DHT22;15961;54.678;9.110;2023-04-25T10:35:13;8.60;99.90
28823;DHT22;15961;54.678;9.110;2023-04-25T10:40:28;6.60;99.90
28823;DHT22;15961;54.678;9.110;2023-04-25T10:42:54;6.00;99.90
28823;DHT22;15961;54.678;9.110;2023-04-25T10:45:21;6.00;99.90
28823;DHT22;15961;54.678;9.110;2023-04-25T10:47:46;6.40;99.90
28823;DHT22;15961;54.678;9.110;2023-04-25T10:50:14;6.80;99.90
28823;DHT22;15961;54.678;9.110;2023-04-25T10:52:41;7.10;99.90
28823;DHT22;15961;54.678;9.110;2023-04-25T10:55:07;7.60;99.90
28823;DHT22;15961;54.678;9.110;2023-04-25T10:57:43;7.40;99.90
28823;DHT22;15961;54.678;9.110;2023-04-25T11:00:17;7.40;99.90
28823;DHT22;15961;54.678;9.110;2023-04-25T11:02:44;7.60;99.90
28823;DHT22;15961;54.678;9.110;2023-04-25T11:05:15;8.00;99.90
28823;DHT22;15961;54.678;9.110;2023-04-25T11:07:53;7.80;99.90
28823;DHT22;15961;54.678;9.110;2023-04-25T11:10:30;7.70;99.90
28823;DHT22;15961;54.678;9.110;2023-04-25T11:12:56;7.70;99.90
28823;DHT22;15961;54.678;9.110;2023-04-25T11:15:22;7.90;99.90
28823;DHT22;15961;54.678;9.110;2023-04-25T11:17:50;8.30;99.90
28823;DHT22;15961;54.678;9.110;2023-04-25T11:20:16;8.90;99.90
28823;DHT22;15961;54.678;9.110;2023-04-25T11:22:44;9.40;99.90
28823;DHT22;15961;54.678;9.110;2023-04-25T11:25:12;9.90;99.90
28823;DHT22;15961;54.678;9.110;2023-04-25T11:27:52;9.50;99.90
28823;DHT22;15961;54.678;9.110;2023-04-25T11:30:18;9.40;99.90
28823;DHT22;15961;54.678;9.110;2023-04-25T11:32:44;8.80;99.90
28823;DHT22;15961;54.678;9.110;2023-04-25T11:35:11;8.40;99.90
28823;DHT22;15961;54.678;9.110;2023-04-25T11:37:38;8.10;99.90
28823;DHT22;15961;54.678;9.110;2023-04-25T11:40:05;7.60;99.90
28823;DHT22;15961;54.678;9.110;2023-04-25T11:42:33;7.40;99.90
28823;DHT22;15961;54.678;9.110;2023-04-25T11:44:59;7.40;99.90
28823;DHT22;15961;54.678;9.110;2023-04-25T11:47:32;7.80;99.90
28823;DHT22;15961;54.678;9.110;2023-04-25T11:50:02;8.60;99.90
28823;DHT22;15961;54.678;9.110;2023-04-25T11:52:46;9.10;99.90
28823;DHT22;15961;54.678;9.110;2023-04-25T11:55:16;9.40;99.90
28823;DHT22;15961;54.678;9.110;2023-04-25T11:57:44;9.40;99.90
28823;DHT22;15961;54.678;9.110;2023-04-25T12:00:15;9.70;99.90
28823;DHT22;15961;54.678;9.110;2023-04-25T12:02:46;10.40;99.90
28823;DHT22;15961;54.678;9.110;2023-04-25T12:05:13;10.30;99.90
28823;DHT22;15961;54.678;9.110;2023-04-25T12:07:42;9.80;99.90
28823;DHT22;15961;54.678;9.110;2023-04-25T12:10:16;9.60;99.90
28823;DHT22;15961;54.678;9.110;2023-04-25T12:12:43;9.50;99.90
28823;DHT22;15961;54.678;9.110;2023-04-25T12:15:25;9.10;99.90
28823;DHT22;15961;54.678;9.110;2023-04-25T12:17:52;9.10;99.90
28823;DHT22;15961;54.678;9.110;2023-04-25T12:20:20;8.90;99.90
28823;DHT22;15961;54.678;9.110;2023-04-25T12:22:47;8.50;99.90
28823;DHT22;15961;54.678;9.110;2023-04-25T12:25:14;7.90;99.90
28823;DHT22;15961;54.678;9.110;2023-04-25T12:28:21;7.10;99.90
28823;DHT22;15961;54.678;9.110;2023-04-25T12:31:04;7.00;99.90
28823;DHT22;15961;54.678;9.110;2023-04-25T12:33:31;7.70;99.90
28823;DHT22;15961;54.678;9.110;2023-04-25T12:35:58;8.00;99.90
28823;DHT22;15961;54.678;9.110;2023-04-25T12:38:39;7.70;99.90
28823;DHT22;15961;54.678;9.110;2023-04-25T12:41:05;7.30;99.90
28823;DHT22;15961;54.678;9.110;2023-04-25T12:43:30;7.00;99.90
28823;DHT22;15961;54.678;9.110;2023-04-25T12:45:56;6.90;99.90
28823;DHT22;15961;54.678;9.110;2023-04-25T12:48:23;7.00;99.90
28823;DHT22;15961;54.678;9.110;2023-04-25T12:50:49;7.30;99.90
28823;DHT22;15961;54.678;9.110;2023-04-25T12:53:20;7.50;99.90
28823;DHT22;15961;54.678;9.110;2023-04-25T12:55:48;8.60;99.90
28823;DHT22;15961;54.678;9.110;2023-04-25T12:58:15;10.00;99.90
28823;DHT22;15961;54.678;9.110;2023-04-25T13:00:41;10.70;99.90
28823;DHT22;15961;54.678;9.110;2023-04-25T13:03:07;10.20;99.90
28823;DHT22;15961;54.678;9.110;2023-04-25T13:05:33;7.60;99.90
28823;DHT22;15961;54.678;9.110;2023-04-25T13:07:58;6.10;99.90
28823;DHT22;15961;54.678;9.110;2023-04-25T13:10:24;5.70;99.90
28823;DHT22;15961;54.678;9.110;2023-04-25T13:12:50;6.50;99.90
28823;DHT22;15961;54.678;9.110;2023-04-25T13:15:15;7.30;99.90
28823;DHT22;15961;54.678;9.110;2023-04-25T13:17:42;8.10;99.90
28823;DHT22;15961;54.678;9.110;2023-04-25T13:20:08;8.50;99.90
28823;DHT22;15961;54.678;9.110;2023-04-25T13:22:38;8.60;99.90
28823;DHT22;15961;54.678;9.110;2023-04-25T13:25:06;8.30;99.90
28823;DHT22;15961;54.678;9.110;2023-04-25T13:27:32;7.80;99.90
28823;DHT22;15961;54.678;9.110;2023-04-25T13:30:00;7.90;99.90
28823;DHT22;15961;54.678;9.110;2023-04-25T13:32:26;8.80;99.90
28823;DHT22;15961;54.678;9.110;2023-04-25T13:34:52;9.20;99.90
28823;DHT22;15961;54.678;9.110;2023-04-25T13:37:18;8.80;99.90
28823;DHT22;15961;54.678;9.110;2023-04-25T13:39:46;9.00;99.90
28823;DHT22;15961;54.678;9.110;2023-04-25T13:42:14;9.70;99.90
28823;DHT22;15961;54.678;9.110;2023-04-25T13:44:41;9.50;99.90
28823;DHT22;15961;54.678;9.110;2023-04-25T13:47:06;8.90;99.90
28823;DHT22;15961;54.678;9.110;2023-04-25T13:49:32;9.10;99.90
28823;DHT22;15961;54.678;9.110;2023-04-25T13:51:57;9.50;99.90
28823;DHT22;15961;54.678;9.110;2023-04-25T13:54:23;9.60;99.90
28823;DHT22;15961;54.678;9.110;2023-04-25T13:56:49;9.70;99.90
28823;DHT22;15961;54.678;9.110;2023-04-25T13:59:16;9.20;99.90
28823;DHT22;15961;54.678;9.110;2023-04-25T14:01:42;8.70;99.90
28823;DHT22;15961;54.678;9.110;2023-04-25T14:04:08;8.40;99.90
28823;DHT22;15961;54.678;9.110;2023-04-25T14:06:34;8.30;99.90
28823;DHT22;15961;54.678;9.110;2023-04-25T14:09:00;8.30;99.90
28823;DHT22;15961;54.678;9.110;2023-04-25T14:11:26;8.70;99.90
28823;DHT22;15961;54.678;9.110;2023-04-25T14:13:55;9.50;99.90
28823;DHT22;15961;54.678;9.110;2023-04-25T14:16:20;10.00;99.90
28823;DHT22;15961;54.678;9.110;2023-04-25T14:18:46;10.20;99.90
28823;DHT22;15961;54.678;9.110;2023-04-25T14:21:11;10.00;99.90
28823;DHT22;15961;54.678;9.110;2023-04-25T14:23:37;10.30;99.90
28823;DHT22;15961;54.678;9.110;2023-04-25T14:26:02;10.40;99.90
28823;DHT22;15961;54.678;9.110;2023-04-25T14:28:28;10.20;99.90
28823;DHT22;15961;54.678;9.110;2023-04-25T14:30:53;10.40;99.90
28823;DHT22;15961;54.678;9.110;2023-04-25T14:33:19;10.70;99.90
28823;DHT22;15961;54.678;9.110;2023-04-25T14:35:44;10.20;99.90
28823;DHT22;15961;54.678;9.110;2023-04-25T14:38:10;9.40;99.90
28823;DHT22;15961;54.678;9.110;2023-04-25T14:40:36;8.80;99.90
28823;DHT22;15961;54.678;9.110;2023-04-25T14:43:02;8.50;99.90
28823;DHT22;15961;54.678;9.110;2023-04-25T14:45:28;8.30;99.90
28823;DHT22;15961;54.678;9.110;2023-04-25T14:47:53;8.00;99.90
28823;DHT22;15961;54.678;9.110;2023-04-25T14:50:19;7.70;99.90
28823;DHT22;15961;54.678;9.110;2023-04-25T14:52:45;7.90;99.90
28823;DHT22;15961;54.678;9.110;2023-04-25T14:55:11;8.10;99.90
28823;DHT22;15961;54.678;9.110;2023-04-25T14:57:40;8.50;99.90
28823;DHT22;15961;54.678;9.110;2023-04-25T15:00:06;8.90;99.90
28823;DHT22;15961;54.678;9.110;2023-04-25T15:02:35;9.40;99.90
28823;DHT22;15961;54.678;9.110;2023-04-25T15:05:01;9.90;99.90
28823;DHT22;15961;54.678;9.110;2023-04-25T15:07:27;10.40;99.90
28823;DHT22;15961;54.678;9.110;2023-04-25T15:09:52;10.50;99.90
28823;DHT22;15961;54.678;9.110;2023-04-25T15:12:19;9.60;99.90
28823;DHT22;15961;54.678;9.110;2023-04-25T15:14:45;8.80;99.90
28823;DHT22;15961;54.678;9.110;2023-04-25T15:17:10;8.30;99.90
28823;DHT22;15961;54.678;9.110;2023-04-25T15:19:39;7.90;99.90
28823;DHT22;15961;54.678;9.110;2023-04-25T15:22:05;7.60;99.90
28823;DHT22;15961;54.678;9.110;2023-04-25T15:24:34;7.40;99.90
28823;DHT22;15961;54.678;9.110;2023-04-25T15:27:00;7.50;99.90
28823;DHT22;15961;54.678;9.110;2023-04-25T15:29:26;7.70;99.90
28823;DHT22;15961;54.678;9.110;2023-04-25T15:31:52;8.30;99.90
28823;DHT22;15961;54.678;9.110;2023-04-25T15:34:18;9.00;99.90
28823;DHT22;15961;54.678;9.110;2023-04-25T15:36:43;9.50;99.90
28823;DHT22;15961;54.678;9.110;2023-04-25T15:39:09;9.80;99.90
28823;DHT22;15961;54.678;9.110;2023-04-25T15:41:36;9.70;99.90
28823;DHT22;15961;54.678;9.110;2023-04-25T15:44:02;9.20;99.90
28823;DHT22;15961;54.678;9.110;2023-04-25T15:46:27;8.50;99.90